createdAt,value
2022-10-25T00:03:31.964Z,14.74
2022-10-25T00:07:34.014Z,14.73
2022-10-25T00:11:36.077Z,14.71
2022-10-25T00:15:38.162Z,14.53
2022-10-25T00:19:40.062Z,14.48
2022-10-25T00:23:42.324Z,14.44
2022-10-25T00:27:44.296Z,14.31
2022-10-25T00:31:46.385Z,14.25
2022-10-25T00:35:48.327Z,14.31
2022-10-25T00:39:50.308Z,14.24
2022-10-25T00:43:54.583Z,14.23
2022-10-25T00:47:58.434Z,14.33
2022-10-25T00:52:05.647Z,14.43
2022-10-25T00:56:16.489Z,14.53
2022-10-25T01:00:18.777Z,14.53
2022-10-25T01:04:24.900Z,14.48
2022-10-25T01:08:27.167Z,14.56
2022-10-25T01:12:29.490Z,14.49
2022-10-25T01:16:34.466Z,14.49
2022-10-25T01:21:13.824Z,14.52
2022-10-25T01:25:27.863Z,14.38
2022-10-25T01:29:52.458Z,14.33
2022-10-25T01:33:57.374Z,14.29
2022-10-25T01:38:21.311Z,14.25
2022-10-25T01:42:46.700Z,14.16
2022-10-25T01:46:54.509Z,14.16
2022-10-25T01:51:05.943Z,14.14
2022-10-25T01:55:13.355Z,14.07
2022-10-25T01:59:37.584Z,14.13
2022-10-25T02:03:45.023Z,14.12
2022-10-25T02:08:22.069Z,14.00
2022-10-25T02:12:42.239Z,13.79
2022-10-25T02:16:50.690Z,13.88
2022-10-25T02:20:58.039Z,13.91
2022-10-25T02:25:01.189Z,13.82
2022-10-25T02:29:07.018Z,13.84
2022-10-25T02:33:09.283Z,13.78
2022-10-25T02:37:11.229Z,13.82
2022-10-25T02:41:13.180Z,13.80
2022-10-25T02:45:15.321Z,13.66
2022-10-25T02:49:17.412Z,13.43
2022-10-25T02:53:19.759Z,13.49
2022-10-25T02:57:21.757Z,13.55
2022-10-25T03:01:24.808Z,13.57
2022-10-25T03:05:26.811Z,13.58
2022-10-25T03:09:28.951Z,13.52
2022-10-25T03:13:31.625Z,13.48
2022-10-25T03:17:33.780Z,13.49
2022-10-25T03:21:38.669Z,13.45
2022-10-25T03:25:44.541Z,13.40
2022-10-25T03:29:46.476Z,13.36
2022-10-25T03:33:48.401Z,13.39
2022-10-25T03:37:51.381Z,13.31
2022-10-25T03:41:53.319Z,13.35
2022-10-25T03:45:55.283Z,13.27
2022-10-25T03:49:57.284Z,13.27
2022-10-25T03:53:59.292Z,13.33
2022-10-25T03:58:01.463Z,13.31
2022-10-25T04:02:03.546Z,13.08
2022-10-25T04:06:05.852Z,13.05
2022-10-25T04:10:08.149Z,13.18
2022-10-25T04:14:10.254Z,13.23
2022-10-25T04:18:12.257Z,13.26
2022-10-25T04:22:14.971Z,13.39
2022-10-25T04:26:18.865Z,13.48
2022-10-25T04:30:20.920Z,13.54
2022-10-25T04:34:22.838Z,13.57
2022-10-25T04:38:25.261Z,13.61
2022-10-25T04:42:27.238Z,13.64
2022-10-25T04:46:29.139Z,13.63
2022-10-25T04:50:31.099Z,13.65
2022-10-25T04:54:34.289Z,13.43
2022-10-25T04:58:36.917Z,13.15
2022-10-25T05:02:38.929Z,13.05
2022-10-25T05:06:40.951Z,12.99
2022-10-25T05:10:42.893Z,12.92
2022-10-25T05:19:29.159Z,12.78
2022-10-25T05:23:33.027Z,12.81
2022-10-25T05:27:39.238Z,12.96
2022-10-25T05:31:41.580Z,13.08
2022-10-25T05:35:43.547Z,13.15
2022-10-25T05:39:45.499Z,13.24
2022-10-25T05:43:47.790Z,13.36
2022-10-25T05:47:49.716Z,13.37
2022-10-25T05:51:51.735Z,13.40
2022-10-25T05:55:53.802Z,13.49
2022-10-25T05:59:55.758Z,13.55
2022-10-25T06:03:58.169Z,13.64
2022-10-25T06:08:00.076Z,13.72
2022-10-25T06:12:03.040Z,13.76
2022-10-25T06:16:09.375Z,13.86
2022-10-25T06:20:11.694Z,13.89
2022-10-25T06:24:13.820Z,13.93
2022-10-25T06:28:15.795Z,14.02
2022-10-25T06:32:18.136Z,14.13
2022-10-25T06:36:23.149Z,14.08
2022-10-25T06:40:25.129Z,14.40
2022-10-25T06:44:27.025Z,14.69
2022-10-25T06:48:29.492Z,14.86
2022-10-25T06:52:31.437Z,15.06
2022-10-25T06:56:34.184Z,15.30
2022-10-25T07:00:36.156Z,15.56
2022-10-25T07:04:38.280Z,15.84
2022-10-25T07:08:43.367Z,16.04
2022-10-25T07:12:45.806Z,16.18
2022-10-25T07:16:47.822Z,16.40
2022-10-25T07:20:50.808Z,16.62
2022-10-25T07:24:52.844Z,16.78
2022-10-25T07:28:57.112Z,16.98
2022-10-25T07:32:58.976Z,17.04
2022-10-25T07:37:01.217Z,17.12
2022-10-25T07:41:03.580Z,17.25
2022-10-25T07:45:06.368Z,17.38
2022-10-25T07:49:08.343Z,17.27
2022-10-25T07:53:10.273Z,17.30
2022-10-25T07:57:12.407Z,17.32
2022-10-25T08:01:20.013Z,17.56
2022-10-25T08:05:22.090Z,17.73
2022-10-25T08:09:37.798Z,17.87
2022-10-25T08:13:40.985Z,17.92
2022-10-25T08:17:43.097Z,18.04
2022-10-25T08:21:45.062Z,18.25
2022-10-25T08:25:47.284Z,18.45
2022-10-25T08:29:49.235Z,18.52
2022-10-25T08:33:51.160Z,18.66
2022-10-25T08:37:53.080Z,18.83
2022-10-25T08:41:57.570Z,18.97
2022-10-25T08:46:13.708Z,19.06
2022-10-25T08:50:20.597Z,19.17
2022-10-25T08:54:49.953Z,19.27
2022-10-25T08:58:55.884Z,19.24
2022-10-25T09:03:00.166Z,19.32
2022-10-25T09:07:02.644Z,19.34
2022-10-25T09:11:31.318Z,19.27
2022-10-25T09:15:50.487Z,19.15
2022-10-25T09:19:52.367Z,19.24
2022-10-25T09:24:21.573Z,19.35
2022-10-25T09:29:02.487Z,19.53
2022-10-25T09:33:11.393Z,19.62
2022-10-25T09:37:25.470Z,19.89
2022-10-25T09:41:33.769Z,20.07
2022-10-25T09:45:52.157Z,20.00
2022-10-25T09:50:06.974Z,20.03
2022-10-25T09:54:23.471Z,20.06
2022-10-25T09:58:29.262Z,20.07
2022-10-25T10:02:31.556Z,20.14
2022-10-25T10:06:38.058Z,20.10
2022-10-25T10:10:41.006Z,20.19
2022-10-25T10:14:56.786Z,20.24
2022-10-25T10:19:21.553Z,20.10
2022-10-25T10:23:24.063Z,19.94
2022-10-25T10:27:27.996Z,20.01
2022-10-25T10:31:43.422Z,20.08
2022-10-25T10:35:45.374Z,20.23
2022-10-25T10:39:55.039Z,20.37
2022-10-25T10:44:14.225Z,20.48
2022-10-25T10:48:22.274Z,20.55
2022-10-25T10:52:46.312Z,20.89
2022-10-25T10:57:00.926Z,21.29
2022-10-25T11:01:12.778Z,21.55
2022-10-25T11:05:25.462Z,22.03
2022-10-25T11:09:28.025Z,22.33
2022-10-25T11:13:30.053Z,22.54
2022-10-25T11:17:39.712Z,23.05
2022-10-25T11:21:46.576Z,23.26
2022-10-25T11:25:56.591Z,23.36
2022-10-25T11:30:20.028Z,23.41
2022-10-25T11:34:51.743Z,23.60
2022-10-25T11:39:15.685Z,23.77
2022-10-25T11:43:33.018Z,23.90
2022-10-25T11:48:10.992Z,23.62
2022-10-25T11:52:22.275Z,23.73
2022-10-25T11:56:38.245Z,23.73
2022-10-25T12:01:06.562Z,23.39
2022-10-25T12:05:08.951Z,23.30
2022-10-25T12:09:29.469Z,23.33
2022-10-25T12:13:36.791Z,23.59
2022-10-25T12:17:39.442Z,23.35
2022-10-25T12:21:46.194Z,23.67
2022-10-25T12:25:52.821Z,24.16
2022-10-25T12:30:00.564Z,24.37
2022-10-25T12:34:25.948Z,24.44
2022-10-25T12:38:34.568Z,24.50
2022-10-25T12:43:16.365Z,24.53
2022-10-25T12:47:44.607Z,24.75
2022-10-25T12:52:17.615Z,24.36
2022-10-25T12:56:33.810Z,24.46
2022-10-25T13:00:44.429Z,24.49
2022-10-25T13:04:53.959Z,24.34
2022-10-25T13:09:03.083Z,24.28
2022-10-25T13:13:18.453Z,24.39
2022-10-25T13:17:20.319Z,24.52
2022-10-25T13:21:53.976Z,24.85
2022-10-25T13:25:56.017Z,24.71
2022-10-25T13:30:07.046Z,24.50
2022-10-25T13:34:12.045Z,24.35
2022-10-25T13:38:22.027Z,24.25
2022-10-25T13:42:33.302Z,24.26
2022-10-25T13:46:41.187Z,24.23
2022-10-25T13:51:13.096Z,24.03
2022-10-25T13:55:16.541Z,24.06
2022-10-25T13:59:47.979Z,24.12
2022-10-25T14:03:54.187Z,24.14
2022-10-25T14:08:17.076Z,24.34
2022-10-25T14:12:21.535Z,24.44
2022-10-25T14:16:32.999Z,24.41
2022-10-25T14:20:36.409Z,24.24
2022-10-25T14:24:42.285Z,24.16
2022-10-25T14:28:44.361Z,24.16
2022-10-25T14:32:56.143Z,24.26
2022-10-25T14:36:58.683Z,24.39
2022-10-25T14:41:11.817Z,24.45
2022-10-25T14:45:21.042Z,24.47
2022-10-25T14:49:24.039Z,24.33
2022-10-25T14:53:28.494Z,24.23
2022-10-25T14:57:31.608Z,24.17
2022-10-25T15:01:34.762Z,24.06
2022-10-25T15:05:41.096Z,23.83
2022-10-25T15:09:55.997Z,23.70
2022-10-25T15:13:58.290Z,23.51
2022-10-25T15:18:00.395Z,23.38
2022-10-25T15:22:10.669Z,23.26
2022-10-25T15:26:25.206Z,23.07
2022-10-25T15:30:40.336Z,22.90
2022-10-25T15:34:44.594Z,22.80
2022-10-25T15:39:07.265Z,22.70
2022-10-25T15:43:08.422Z,22.48
2022-10-25T15:47:26.299Z,22.24
2022-10-25T15:51:31.126Z,22.00
2022-10-25T15:55:33.268Z,21.84
2022-10-25T15:59:35.392Z,21.71
2022-10-25T16:03:37.350Z,21.55
2022-10-25T16:07:39.302Z,21.35
2022-10-25T16:11:46.943Z,21.20
2022-10-25T16:15:49.703Z,21.03
2022-10-25T16:19:51.607Z,20.88
2022-10-25T16:23:53.537Z,20.65
2022-10-25T16:27:55.500Z,20.39
2022-10-25T16:31:57.381Z,20.21
2022-10-25T16:35:59.296Z,19.99
2022-10-25T16:40:01.994Z,19.78
2022-10-25T16:44:04.020Z,19.69
2022-10-25T16:48:06.487Z,19.48
2022-10-25T16:52:08.764Z,19.38
2022-10-25T16:56:11.545Z,19.13
2022-10-25T17:00:15.269Z,19.01
2022-10-25T17:04:17.194Z,18.94
2022-10-25T17:08:19.092Z,18.87
2022-10-25T17:12:21.075Z,18.81
2022-10-25T17:16:23.157Z,18.65
2022-10-25T17:20:25.114Z,18.39
2022-10-25T17:24:27.199Z,18.01
2022-10-25T17:28:30.558Z,17.87
2022-10-25T17:32:32.482Z,17.91
2022-10-25T17:36:34.471Z,17.67
2022-10-25T17:40:42.170Z,17.68
2022-10-25T17:44:44.675Z,17.75
2022-10-25T17:48:46.993Z,17.75
2022-10-25T17:52:50.696Z,17.73
2022-10-25T17:56:56.483Z,17.68
2022-10-25T18:01:04.020Z,17.50
2022-10-25T18:05:19.924Z,17.03
2022-10-25T18:09:22.579Z,16.94
2022-10-25T18:13:25.530Z,16.78
2022-10-25T18:17:27.607Z,16.56
2022-10-25T18:21:29.795Z,16.32
2022-10-25T18:25:31.767Z,16.26
2022-10-25T18:29:35.038Z,16.37
2022-10-25T18:33:39.132Z,16.50
2022-10-25T18:37:41.092Z,16.52
2022-10-25T18:41:44.280Z,16.34
2022-10-25T18:45:46.626Z,16.15
2022-10-25T18:49:48.928Z,16.07
2022-10-25T18:53:55.358Z,16.18
2022-10-25T18:57:58.787Z,16.26
2022-10-25T19:02:01.078Z,15.83
2022-10-25T19:06:04.073Z,15.76
2022-10-25T19:10:06.506Z,15.59
2022-10-25T19:14:08.458Z,15.68
2022-10-25T19:18:10.521Z,15.70
2022-10-25T19:22:12.528Z,15.72
2022-10-25T19:26:18.218Z,15.78
2022-10-25T19:30:20.707Z,15.79
2022-10-25T19:34:24.451Z,15.76
2022-10-25T19:38:26.516Z,15.70
2022-10-25T19:42:28.618Z,15.64
2022-10-25T19:46:30.617Z,15.71
2022-10-25T19:50:33.609Z,15.72
2022-10-25T19:54:35.718Z,15.51
2022-10-25T19:58:37.754Z,15.53
2022-10-25T20:02:40.082Z,15.54
2022-10-25T20:06:42.072Z,15.57
2022-10-25T20:10:44.058Z,15.56
2022-10-25T20:14:46.094Z,15.53
2022-10-25T20:18:48.111Z,15.46
2022-10-25T20:22:50.089Z,15.33
2022-10-25T20:26:53.346Z,14.86
2022-10-25T20:31:03.275Z,14.72
2022-10-25T20:35:05.736Z,14.78
2022-10-25T20:39:07.601Z,14.87
2022-10-25T20:43:09.488Z,14.99
2022-10-25T20:47:11.464Z,15.04
2022-10-25T20:51:15.678Z,15.07
2022-10-25T20:55:19.158Z,15.05
2022-10-25T20:59:21.174Z,14.99
2022-10-25T21:03:28.032Z,14.97
2022-10-25T21:07:31.582Z,14.97
2022-10-25T21:11:33.699Z,14.97
2022-10-25T21:15:36.627Z,14.93
2022-10-25T21:19:38.522Z,14.89
2022-10-25T21:23:41.368Z,14.90
2022-10-25T21:27:43.358Z,14.88
2022-10-25T21:31:45.419Z,14.88
2022-10-25T21:35:47.380Z,14.85
2022-10-25T21:39:49.307Z,14.83
2022-10-25T21:43:51.456Z,14.75
2022-10-25T21:47:53.401Z,14.72
2022-10-25T21:51:56.001Z,14.69
2022-10-25T21:56:12.541Z,14.64
2022-10-25T22:00:14.861Z,14.47
2022-10-25T22:04:17.478Z,14.53
2022-10-25T22:08:21.928Z,14.53
2022-10-25T22:12:23.792Z,14.52
2022-10-25T22:16:26.059Z,14.47
2022-10-25T22:20:28.140Z,14.49
2022-10-25T22:24:30.177Z,14.46
2022-10-25T22:28:35.473Z,14.47
2022-10-25T22:32:40.260Z,14.42
2022-10-25T22:36:42.564Z,14.41
2022-10-25T22:40:44.487Z,14.30
2022-10-25T22:44:46.403Z,14.14
2022-10-25T22:48:48.568Z,14.17
2022-10-25T22:52:50.677Z,14.16
2022-10-25T22:56:52.670Z,14.15
2022-10-25T23:01:33.907Z,14.18
2022-10-25T23:05:35.879Z,14.06
2022-10-25T23:09:37.937Z,14.12
2022-10-25T23:13:40.474Z,13.93
2022-10-25T23:17:42.504Z,13.85
2022-10-25T23:21:45.198Z,13.66
2022-10-25T23:25:48.422Z,13.52
2022-10-25T23:29:50.690Z,13.54
2022-10-25T23:33:54.976Z,13.63
2022-10-25T23:37:57.379Z,13.63
2022-10-25T23:41:59.368Z,13.56
2022-10-25T23:46:01.618Z,13.44
2022-10-25T23:50:03.832Z,13.26
2022-10-25T23:54:09.490Z,13.11
2022-10-25T23:58:11.553Z,13.22
